createdAt,value
2023-02-18T00:01:10.884Z,36.53
2023-02-18T00:03:37.643Z,37.30
2023-02-18T00:06:15.209Z,38.10
2023-02-18T00:08:43.180Z,40.15
2023-02-18T00:11:10.630Z,40.50
2023-02-18T00:13:37.779Z,39.72
2023-02-18T00:16:12.670Z,39.45
2023-02-18T00:18:39.910Z,35.00
2023-02-18T00:21:08.555Z,38.72
2023-02-18T00:23:35.392Z,39.17
2023-02-18T00:26:04.681Z,39.10
2023-02-18T00:28:31.328Z,37.03
2023-02-18T00:31:00.251Z,37.88
2023-02-18T00:33:26.950Z,39.05
2023-02-18T00:35:53.484Z,40.28
2023-02-18T00:38:20.020Z,42.30
2023-02-18T00:40:47.678Z,42.88
2023-02-18T00:43:15.044Z,43.58
2023-02-18T00:45:41.666Z,45.05
2023-02-18T00:48:08.404Z,44.15
2023-02-18T00:50:35.041Z,43.58
2023-02-18T00:53:01.681Z,43.50
2023-02-18T00:55:28.313Z,43.92
2023-02-18T00:57:54.951Z,47.45
2023-02-18T01:00:21.691Z,44.38
2023-02-18T01:02:48.434Z,43.40
2023-02-18T01:05:15.066Z,44.47
2023-02-18T01:07:41.683Z,47.60
2023-02-18T01:10:08.549Z,46.83
2023-02-18T01:12:35.183Z,45.20
2023-02-18T01:15:01.939Z,43.20
2023-02-18T01:17:28.559Z,45.63
2023-02-18T01:19:55.201Z,48.17
2023-02-18T01:22:21.832Z,48.38
2023-02-18T01:24:48.482Z,44.92
2023-02-18T01:27:15.211Z,44.55
2023-02-18T01:29:41.845Z,44.97
2023-02-18T01:32:08.556Z,43.65
2023-02-18T01:34:35.227Z,46.53
2023-02-18T01:37:01.865Z,44.15
2023-02-18T01:39:28.493Z,41.50
2023-02-18T01:41:55.130Z,42.40
2023-02-18T01:44:27.189Z,43.45
2023-02-18T01:46:54.189Z,42.55
2023-02-18T01:49:27.734Z,41.47
2023-02-18T01:51:59.269Z,40.97
2023-02-18T01:54:29.705Z,41.58
2023-02-18T01:57:05.064Z,41.45
2023-02-18T01:59:37.315Z,42.85
2023-02-18T02:02:05.037Z,44.08
2023-02-18T02:04:31.819Z,36.72
2023-02-18T02:06:58.768Z,41.85
2023-02-18T02:09:30.319Z,41.63
2023-02-18T02:12:12.000Z,38.08
2023-02-18T02:15:08.686Z,38.47
2023-02-18T02:18:19.308Z,37.38
2023-02-18T02:21:04.279Z,34.67
2023-02-18T02:23:56.062Z,35.40
2023-02-18T02:26:40.992Z,34.17
2023-02-18T02:29:13.709Z,35.87
2023-02-18T02:32:10.564Z,35.33
2023-02-18T02:34:49.425Z,34.97
2023-02-18T02:37:50.249Z,31.77
2023-02-18T02:40:34.298Z,31.17
2023-02-18T02:43:20.805Z,30.98
2023-02-18T02:46:25.944Z,26.48
2023-02-18T02:49:01.179Z,27.33
2023-02-18T02:51:35.087Z,28.20
2023-02-18T02:54:17.671Z,28.52
2023-02-18T02:56:45.437Z,26.90
2023-02-18T02:59:22.648Z,27.13
2023-02-18T03:02:18.674Z,29.25
2023-02-18T03:04:57.675Z,28.88
2023-02-18T03:07:48.702Z,26.33
2023-02-18T03:10:34.181Z,27.17
2023-02-18T03:13:16.392Z,25.48
2023-02-18T03:15:57.150Z,28.92
2023-02-18T03:18:33.279Z,25.02
2023-02-18T03:21:18.884Z,23.33
2023-02-18T03:24:13.895Z,22.58
2023-02-18T03:26:54.056Z,22.10
2023-02-18T03:29:23.241Z,20.77
2023-02-18T03:31:56.049Z,19.67
2023-02-18T03:34:30.698Z,15.73
2023-02-18T03:36:59.949Z,15.48
2023-02-18T03:39:29.556Z,14.93
2023-02-18T03:41:56.915Z,14.98
2023-02-18T03:44:25.999Z,13.68
2023-02-18T03:46:53.768Z,14.50
2023-02-18T03:49:20.504Z,13.60
2023-02-18T03:51:47.965Z,12.68
2023-02-18T03:54:14.733Z,13.45
2023-02-18T03:56:42.760Z,11.05
2023-02-18T03:59:10.256Z,10.82
2023-02-18T04:01:37.018Z,11.60
2023-02-18T04:04:04.138Z,10.75
2023-02-18T04:06:31.152Z,10.55
2023-02-18T04:08:57.789Z,9.77
2023-02-18T04:11:24.397Z,7.97
2023-02-18T04:13:50.955Z,8.57
2023-02-18T04:16:17.516Z,6.75
2023-02-18T04:18:44.230Z,6.88
2023-02-18T04:21:11.160Z,7.80
2023-02-18T04:23:38.028Z,6.57
2023-02-18T04:26:04.760Z,7.65
2023-02-18T04:28:31.403Z,8.55
2023-02-18T04:30:58.139Z,6.85
2023-02-18T04:33:24.773Z,5.85
2023-02-18T04:35:51.406Z,6.25
2023-02-18T04:38:17.936Z,6.13
2023-02-18T04:40:44.635Z,8.02
2023-02-18T04:43:11.411Z,5.68
2023-02-18T04:45:38.046Z,4.72
2023-02-18T04:48:04.992Z,4.85
2023-02-18T04:50:31.631Z,4.90
2023-02-18T04:52:58.363Z,5.22
2023-02-18T04:55:24.906Z,5.07
2023-02-18T04:57:51.847Z,3.63
2023-02-18T05:00:20.230Z,4.38
2023-02-18T05:02:46.965Z,3.90
2023-02-18T05:05:14.520Z,4.43
2023-02-18T05:07:42.578Z,3.58
2023-02-18T05:10:15.681Z,3.47
2023-02-18T05:12:42.530Z,3.80
2023-02-18T05:15:09.780Z,3.80
2023-02-18T05:17:36.319Z,3.78
2023-02-18T05:20:03.972Z,3.72
2023-02-18T05:22:30.515Z,2.90
2023-02-18T05:24:57.250Z,3.15
2023-02-18T05:27:23.881Z,2.72
2023-02-18T05:29:50.519Z,4.15
2023-02-18T05:32:17.166Z,3.80
2023-02-18T05:34:44.267Z,3.45
2023-02-18T05:37:11.043Z,3.58
2023-02-18T05:39:37.600Z,3.33
2023-02-18T05:42:04.420Z,2.85
2023-02-18T05:44:31.063Z,3.47
2023-02-18T05:46:59.636Z,3.55
2023-02-18T05:49:27.646Z,2.90
2023-02-18T05:51:54.347Z,3.17
2023-02-18T05:54:21.186Z,3.10
2023-02-18T05:56:48.972Z,3.00
2023-02-18T05:59:19.135Z,3.60
2023-02-18T06:01:46.110Z,3.80
2023-02-18T06:04:13.918Z,3.47
2023-02-18T06:06:40.713Z,3.13
2023-02-18T06:09:08.355Z,2.75
2023-02-18T06:11:36.035Z,4.15
2023-02-18T06:14:03.284Z,3.60
2023-02-18T06:16:30.302Z,4.45
2023-02-18T06:18:57.171Z,4.13
2023-02-18T06:21:23.912Z,4.00
2023-02-18T06:23:50.646Z,3.97
2023-02-18T06:26:17.182Z,7.28
2023-02-18T06:28:43.827Z,4.30
2023-02-18T06:31:10.532Z,4.80
2023-02-18T06:33:37.294Z,5.57
2023-02-18T06:36:07.871Z,5.15
2023-02-18T06:38:36.209Z,5.10
2023-02-18T06:41:03.246Z,5.25
2023-02-18T06:43:30.496Z,6.20
2023-02-18T06:45:57.515Z,6.97
2023-02-18T06:48:24.380Z,5.88
2023-02-18T06:50:51.030Z,6.65
2023-02-18T06:53:17.858Z,6.85
2023-02-18T06:55:44.981Z,6.55
2023-02-18T06:58:13.180Z,6.45
2023-02-18T07:00:39.854Z,6.63
2023-02-18T07:03:06.757Z,8.32
2023-02-18T07:05:33.394Z,9.68
2023-02-18T07:08:00.357Z,9.48
2023-02-18T07:10:26.973Z,11.18
2023-02-18T07:12:53.614Z,12.70
2023-02-18T07:15:24.326Z,11.30
2023-02-18T07:17:51.910Z,10.55
2023-02-18T07:20:19.908Z,12.43
2023-02-18T07:22:47.025Z,10.95
2023-02-18T07:25:14.065Z,12.65
2023-02-18T07:27:40.814Z,12.15
2023-02-18T07:30:08.015Z,11.98
2023-02-18T07:32:35.000Z,10.52
2023-02-18T07:35:02.274Z,11.88
2023-02-18T07:37:28.886Z,12.07
2023-02-18T07:39:55.517Z,10.07
2023-02-18T07:42:22.155Z,11.93
2023-02-18T07:44:49.918Z,10.60
2023-02-18T07:47:19.829Z,13.02
2023-02-18T07:49:47.274Z,11.75
2023-02-18T07:52:15.457Z,11.55
2023-02-18T07:54:42.926Z,12.60
2023-02-18T07:57:09.994Z,10.93
2023-02-18T07:59:36.705Z,12.80
2023-02-18T08:02:05.600Z,16.42
2023-02-18T08:04:32.510Z,17.50
2023-02-18T08:06:59.173Z,15.85
2023-02-18T08:09:25.766Z,23.48
2023-02-18T08:11:52.342Z,17.70
2023-02-18T08:14:19.902Z,18.40
2023-02-18T08:16:46.887Z,22.23
2023-02-18T08:19:13.692Z,20.20
2023-02-18T08:21:40.811Z,20.85
2023-02-18T08:24:08.325Z,22.40
2023-02-18T08:26:35.344Z,24.88
2023-02-18T08:29:02.190Z,19.83
2023-02-18T08:31:30.298Z,19.25
2023-02-18T08:33:59.353Z,20.35
2023-02-18T08:36:27.037Z,14.80
2023-02-18T08:38:54.064Z,15.57
2023-02-18T08:41:21.003Z,15.95
2023-02-18T08:43:48.454Z,15.40
2023-02-18T08:46:31.501Z,23.05
2023-02-18T08:49:02.499Z,14.55
2023-02-18T08:51:30.073Z,17.33
2023-02-18T08:53:57.296Z,18.42
2023-02-18T08:56:23.962Z,18.08
2023-02-18T08:58:50.593Z,17.95
2023-02-18T09:01:17.273Z,19.05
2023-02-18T09:03:43.974Z,17.95
2023-02-18T09:06:10.616Z,16.55
2023-02-18T09:08:37.248Z,18.75
2023-02-18T09:11:04.815Z,20.05
2023-02-18T09:13:32.969Z,18.45
2023-02-18T09:16:08.274Z,19.25
2023-02-18T09:21:07.095Z,17.60
2023-02-18T09:23:34.730Z,17.02
2023-02-18T09:26:05.817Z,14.63
2023-02-18T09:28:32.758Z,17.85
2023-02-18T09:31:11.948Z,14.93
2023-02-18T09:33:41.493Z,14.70
2023-02-18T09:36:08.338Z,17.67
2023-02-18T09:38:34.966Z,17.13
2023-02-18T09:41:05.324Z,14.80
2023-02-18T09:44:10.325Z,21.48
2023-02-18T09:46:42.904Z,17.27
2023-02-18T09:49:34.938Z,19.02
2023-02-18T09:52:14.372Z,12.60
2023-02-18T09:54:41.607Z,17.17
2023-02-18T09:57:21.471Z,17.73
2023-02-18T09:59:51.882Z,16.95
2023-02-18T10:02:20.478Z,12.55
2023-02-18T10:04:52.341Z,15.27
2023-02-18T10:07:28.575Z,12.90
2023-02-18T10:09:57.539Z,11.40
2023-02-18T10:12:26.198Z,14.43
2023-02-18T10:14:55.963Z,13.80
2023-02-18T10:17:28.082Z,13.43
2023-02-18T10:19:56.515Z,14.35
2023-02-18T10:22:26.279Z,14.10
2023-02-18T10:24:59.862Z,11.25
2023-02-18T10:27:29.960Z,14.57
2023-02-18T10:30:10.057Z,13.63
2023-02-18T10:32:40.613Z,13.32
2023-02-18T10:35:31.233Z,8.27
2023-02-18T10:38:06.792Z,9.82
2023-02-18T10:41:08.705Z,9.68
2023-02-18T10:43:50.839Z,9.15
2023-02-18T10:47:06.329Z,11.23
2023-02-18T10:49:55.796Z,10.20
2023-02-18T10:52:23.559Z,7.47
2023-02-18T10:54:50.222Z,8.20
2023-02-18T10:57:22.703Z,10.15
2023-02-18T11:00:16.027Z,9.95
2023-02-18T11:02:43.583Z,12.40
2023-02-18T11:05:39.612Z,10.85
2023-02-18T11:08:09.930Z,11.30
2023-02-18T11:10:42.099Z,10.70
2023-02-18T11:13:12.280Z,9.10
2023-02-18T11:15:53.515Z,12.30
2023-02-18T11:18:30.553Z,10.52
2023-02-18T11:21:03.369Z,11.02
2023-02-18T11:23:30.198Z,11.25
2023-02-18T11:26:12.193Z,11.75
2023-02-18T11:28:46.100Z,10.40
2023-02-18T11:31:24.504Z,12.48
2023-02-18T11:33:55.680Z,10.50
2023-02-18T11:36:24.459Z,11.18
2023-02-18T11:38:57.429Z,9.30
2023-02-18T11:42:02.165Z,11.80
2023-02-18T11:44:38.111Z,11.18
2023-02-18T11:47:22.050Z,11.75
2023-02-18T11:50:04.472Z,10.70
2023-02-18T11:52:49.020Z,13.18
2023-02-18T11:55:25.051Z,14.32
2023-02-18T11:58:06.478Z,12.07
2023-02-18T12:00:45.386Z,11.90
2023-02-18T12:03:35.680Z,12.10
2023-02-18T12:06:06.311Z,12.77
2023-02-18T12:08:39.085Z,15.25
2023-02-18T12:11:22.514Z,11.20
2023-02-18T12:13:55.300Z,11.32
2023-02-18T12:16:21.952Z,11.27
2023-02-18T12:18:54.777Z,13.88
2023-02-18T12:22:05.791Z,19.73
2023-02-18T12:24:42.564Z,10.50
2023-02-18T12:27:33.678Z,12.07
2023-02-18T12:30:22.457Z,12.93
2023-02-18T12:33:19.788Z,14.95
2023-02-18T12:35:56.870Z,15.57
2023-02-18T12:39:02.517Z,14.57
2023-02-18T12:41:49.224Z,8.53
2023-02-18T12:44:59.686Z,12.85
2023-02-18T12:47:37.694Z,12.23
2023-02-18T12:50:15.406Z,13.07
2023-02-18T12:53:24.113Z,12.80
2023-02-18T12:56:09.992Z,11.55
2023-02-18T12:58:59.877Z,8.32
2023-02-18T13:01:44.030Z,10.70
2023-02-18T13:04:36.815Z,7.85
2023-02-18T13:07:25.526Z,5.65
2023-02-18T13:10:19.401Z,12.38
2023-02-18T13:13:08.674Z,6.72
2023-02-18T13:15:58.855Z,6.18
2023-02-18T13:18:35.431Z,10.30
2023-02-18T13:21:06.982Z,7.75
2023-02-18T13:23:38.733Z,9.68
2023-02-18T13:26:09.763Z,9.25
2023-02-18T13:28:52.083Z,7.38
2023-02-18T13:32:01.947Z,6.40
2023-02-18T13:35:00.622Z,9.13
2023-02-18T13:37:51.315Z,8.02
2023-02-18T13:40:30.268Z,5.80
2023-02-18T13:43:20.653Z,7.10
2023-02-18T13:46:14.374Z,5.00
2023-02-18T13:49:02.871Z,10.65
2023-02-18T13:51:32.975Z,7.80
2023-02-18T13:54:35.442Z,6.15
2023-02-18T13:57:14.059Z,7.93
2023-02-18T13:59:58.415Z,6.88
2023-02-18T14:02:25.190Z,5.65
2023-02-18T14:04:57.033Z,6.75
2023-02-18T14:07:36.040Z,6.85
2023-02-18T14:10:25.430Z,7.32
2023-02-18T14:12:58.021Z,10.95
2023-02-18T14:15:24.856Z,9.65
2023-02-18T14:18:12.758Z,6.50
2023-02-18T14:20:39.298Z,6.88
2023-02-18T14:23:40.894Z,5.80
2023-02-18T14:26:07.491Z,4.93
2023-02-18T14:28:34.120Z,12.98
2023-02-18T14:31:16.528Z,6.85
2023-02-18T14:33:55.346Z,6.95
2023-02-18T14:36:29.361Z,8.10
2023-02-18T14:39:48.223Z,7.38
2023-02-18T14:42:42.404Z,5.47
2023-02-18T14:45:46.525Z,6.93
2023-02-18T14:48:30.255Z,5.57
2023-02-18T14:51:00.279Z,6.00
2023-02-18T14:53:28.036Z,4.47
2023-02-18T14:56:05.837Z,7.32
2023-02-18T14:58:38.513Z,5.78
2023-02-18T15:01:15.919Z,4.47
2023-02-18T15:03:42.642Z,6.07
2023-02-18T15:06:32.155Z,8.02
2023-02-18T15:09:03.149Z,6.63
2023-02-18T15:11:40.948Z,7.63
2023-02-18T15:14:24.072Z,6.55
2023-02-18T15:16:51.833Z,4.80
2023-02-18T15:19:26.360Z,6.55
2023-02-18T15:21:57.831Z,5.57
2023-02-18T15:24:35.408Z,5.10
2023-02-18T15:27:11.359Z,4.28
2023-02-18T15:29:38.950Z,4.03
2023-02-18T15:32:24.606Z,6.00
2023-02-18T15:37:20.130Z,6.10
2023-02-18T15:39:48.078Z,7.78
2023-02-18T15:42:26.797Z,5.82
2023-02-18T15:44:58.867Z,5.40
2023-02-18T15:47:25.817Z,6.30
2023-02-18T15:49:55.824Z,8.02
2023-02-18T15:52:40.484Z,5.18
2023-02-18T15:55:15.214Z,6.55
2023-02-18T15:57:42.460Z,4.65
2023-02-18T16:00:35.837Z,6.22
2023-02-18T16:03:09.835Z,8.32
2023-02-18T16:05:38.727Z,3.83
2023-02-18T16:08:08.325Z,4.40
2023-02-18T16:10:36.920Z,8.00
2023-02-18T16:13:04.884Z,7.00
2023-02-18T16:15:42.059Z,5.50
2023-02-18T16:18:45.053Z,7.85
2023-02-18T16:21:18.167Z,8.27
2023-02-18T16:23:58.506Z,6.57
2023-02-18T16:26:40.183Z,6.50
2023-02-18T16:29:15.938Z,5.85
2023-02-18T16:31:43.730Z,6.82
2023-02-18T16:34:10.854Z,4.72
2023-02-18T16:36:37.378Z,7.63
2023-02-18T16:39:04.121Z,6.90
2023-02-18T16:41:30.754Z,7.97
2023-02-18T16:43:58.630Z,10.40
2023-02-18T16:46:26.384Z,5.53
2023-02-18T16:48:57.934Z,6.18
2023-02-18T16:51:33.685Z,7.57
2023-02-18T16:54:00.733Z,8.30
2023-02-18T16:56:32.316Z,7.00
2023-02-18T16:58:59.752Z,6.28
2023-02-18T17:01:44.841Z,6.65
2023-02-18T17:04:14.948Z,6.20
2023-02-18T17:06:42.280Z,9.40
2023-02-18T17:09:27.051Z,6.90
2023-02-18T17:11:56.043Z,5.57
2023-02-18T17:14:23.645Z,10.10
2023-02-18T17:16:52.962Z,12.38
2023-02-18T17:19:20.495Z,12.95
2023-02-18T17:21:48.832Z,13.35
2023-02-18T17:24:17.542Z,14.25
2023-02-18T17:26:44.351Z,17.73
2023-02-18T17:29:10.985Z,17.45
2023-02-18T17:31:41.812Z,20.02
2023-02-18T17:34:13.633Z,18.05
2023-02-18T17:36:45.296Z,17.55
2023-02-18T17:39:17.396Z,20.98
2023-02-18T17:41:44.654Z,25.60
2023-02-18T17:44:19.588Z,23.60
2023-02-18T17:46:47.037Z,27.10
2023-02-18T17:49:13.673Z,24.25
2023-02-18T17:51:40.530Z,23.35
2023-02-18T17:54:13.821Z,24.58
2023-02-18T17:56:41.266Z,26.83
2023-02-18T17:59:08.220Z,24.20
2023-02-18T18:01:35.515Z,25.85
2023-02-18T18:04:02.125Z,25.83
2023-02-18T18:06:28.828Z,28.05
2023-02-18T18:08:55.668Z,25.75
2023-02-18T18:11:24.286Z,27.30
2023-02-18T18:13:52.881Z,28.15
2023-02-18T18:16:22.580Z,31.13
2023-02-18T18:18:49.184Z,33.05
2023-02-18T18:21:28.926Z,31.15
2023-02-18T18:23:55.541Z,34.10
2023-02-18T18:26:22.198Z,35.65
2023-02-18T18:28:51.005Z,37.17
2023-02-18T18:31:18.818Z,36.35
2023-02-18T18:33:48.983Z,37.42
2023-02-18T18:36:16.732Z,34.97
2023-02-18T18:38:43.477Z,33.58
2023-02-18T18:41:14.710Z,31.83
2023-02-18T18:43:41.359Z,33.15
2023-02-18T18:46:08.338Z,31.77
2023-02-18T18:48:34.848Z,34.03
2023-02-18T18:51:02.302Z,31.95
2023-02-18T18:53:32.052Z,32.95
2023-02-18T18:56:02.011Z,30.55
2023-02-18T18:58:28.659Z,30.23
2023-02-18T19:01:01.593Z,29.52
2023-02-18T19:03:29.921Z,29.67
2023-02-18T19:05:57.262Z,33.33
2023-02-18T19:08:24.206Z,31.65
2023-02-18T19:10:56.278Z,26.67
2023-02-18T19:13:29.764Z,28.02
2023-02-18T19:16:13.295Z,28.45
2023-02-18T19:18:39.936Z,29.27
2023-02-18T19:21:06.813Z,27.70
2023-02-18T19:23:34.230Z,30.92
2023-02-18T19:26:01.375Z,28.75
2023-02-18T19:28:28.529Z,27.60
2023-02-18T19:30:55.277Z,29.35
2023-02-18T19:33:21.898Z,29.50
2023-02-18T19:35:48.739Z,27.98
2023-02-18T19:38:17.533Z,29.65
2023-02-18T19:40:45.298Z,30.23
2023-02-18T19:43:12.637Z,30.08
2023-02-18T19:45:44.610Z,35.95
2023-02-18T19:48:12.474Z,27.10
2023-02-18T19:50:40.851Z,30.38
2023-02-18T19:53:07.901Z,25.45
2023-02-18T19:55:34.824Z,28.92
2023-02-18T19:58:01.482Z,28.02
2023-02-18T20:00:28.119Z,28.15
2023-02-18T20:02:54.690Z,27.35
2023-02-18T20:05:21.408Z,31.77
2023-02-18T20:07:48.541Z,30.08
2023-02-18T20:10:20.157Z,27.85
2023-02-18T20:12:52.877Z,26.40
2023-02-18T20:15:19.886Z,29.27
2023-02-18T20:17:46.766Z,26.70
2023-02-18T20:20:13.398Z,27.52
2023-02-18T20:22:40.038Z,31.25
2023-02-18T20:25:06.979Z,32.65
2023-02-18T20:27:34.330Z,33.40
2023-02-18T20:30:01.128Z,32.15
2023-02-18T20:32:27.739Z,33.15
2023-02-18T20:34:55.498Z,33.30
2023-02-18T20:37:22.207Z,30.67
2023-02-18T20:39:48.845Z,30.55
2023-02-18T20:42:16.911Z,33.95
2023-02-18T20:44:45.498Z,30.70
2023-02-18T20:47:13.703Z,35.20
2023-02-18T20:49:41.238Z,34.00
2023-02-18T20:52:09.088Z,32.17
2023-02-18T20:54:36.051Z,32.10
2023-02-18T20:57:02.985Z,30.35
2023-02-18T20:59:29.856Z,34.47
2023-02-18T21:01:56.511Z,33.03
2023-02-18T21:04:23.194Z,34.20
2023-02-18T21:06:50.650Z,34.55
2023-02-18T21:09:17.902Z,34.15
2023-02-18T21:11:44.847Z,30.45
2023-02-18T21:14:12.096Z,35.47
2023-02-18T21:16:39.026Z,31.30
2023-02-18T21:19:12.147Z,30.65
2023-02-18T21:21:38.857Z,32.38
2023-02-18T21:24:05.800Z,33.08
2023-02-18T21:26:32.565Z,28.70
2023-02-18T21:29:02.457Z,31.85
2023-02-18T21:31:32.617Z,30.98
2023-02-18T21:33:59.722Z,34.17
2023-02-18T21:36:27.389Z,33.47
2023-02-18T21:38:59.348Z,32.08
2023-02-18T21:41:26.805Z,34.42
2023-02-18T21:43:53.442Z,32.33
2023-02-18T21:46:25.428Z,35.75
2023-02-18T21:49:09.919Z,33.28
2023-02-18T21:51:56.446Z,31.55
2023-02-18T21:54:27.087Z,34.72
2023-02-18T21:56:54.752Z,32.45
2023-02-18T21:59:23.344Z,34.25
2023-02-18T22:01:50.304Z,35.53
2023-02-18T22:04:16.910Z,32.88
2023-02-18T22:06:43.768Z,35.17
2023-02-18T22:09:12.645Z,34.25
2023-02-18T22:11:41.946Z,33.38
2023-02-18T22:14:12.989Z,35.88
2023-02-18T22:16:39.877Z,35.75
2023-02-18T22:19:06.799Z,37.83
2023-02-18T22:21:33.722Z,35.55
2023-02-18T22:24:00.457Z,35.60
2023-02-18T22:26:27.696Z,36.45
2023-02-18T22:28:56.698Z,41.13
2023-02-18T22:31:25.032Z,36.75
2023-02-18T22:33:53.448Z,38.67
2023-02-18T22:36:22.238Z,40.25
2023-02-18T22:38:51.633Z,37.38
2023-02-18T22:41:20.422Z,39.10
2023-02-18T22:43:47.367Z,38.65
2023-02-18T22:46:18.465Z,33.67
2023-02-18T22:48:45.304Z,44.55
2023-02-18T22:51:23.257Z,39.88
2023-02-18T22:53:49.898Z,35.10
2023-02-18T22:56:18.584Z,37.38
2023-02-18T22:58:47.664Z,38.47
2023-02-18T23:01:25.971Z,40.67
2023-02-18T23:03:53.586Z,39.83
2023-02-18T23:06:23.450Z,38.17
2023-02-18T23:08:50.603Z,37.80
2023-02-18T23:11:19.686Z,40.05
2023-02-18T23:14:06.960Z,36.13
2023-02-18T23:16:55.457Z,36.88
2023-02-18T23:19:23.414Z,34.33
2023-02-18T23:21:49.940Z,35.42
2023-02-18T23:24:16.593Z,33.78
2023-02-18T23:26:43.641Z,35.20
2023-02-18T23:29:10.485Z,36.75
2023-02-18T23:31:40.301Z,31.92
2023-02-18T23:34:08.608Z,31.80
2023-02-18T23:36:36.008Z,35.67
2023-02-18T23:39:05.842Z,28.73
2023-02-18T23:41:34.382Z,31.08
2023-02-18T23:44:06.758Z,36.45
2023-02-18T23:46:34.494Z,36.35
2023-02-18T23:49:01.664Z,32.92
2023-02-18T23:51:29.737Z,36.60
2023-02-18T23:53:56.822Z,30.67
2023-02-18T23:56:27.753Z,34.47
2023-02-18T23:58:57.411Z,32.45
